Linville Falls, North Carolina
Current Conditions -  °F | °C
As of 11:15 PM on Tuesday 21 Oct 2014 (Local Time) from KMRN Reporting Station
Clear Clear  
Wind Chill: 51°   Ceiling: Unl
Heat Index: 51°   Visibility: 10mi
Dew Point: 37°   Wind: 0mph
Humidity: 59%   Direction: NA
Pressure: 30.06"   Gusts: NA
Location:  35.96°N, 81.94°W
Report Text: KMRN 220315Z AUTO 00000KT 10SM CLR 10/03 A3006 RMK AO2 T01040028
Loading
Personal Weather Stations






























Interactive Weather Map
Tropical Storm Tracking
New forecast layout! Learn more

10-Day Weather Forecast

Advertisements
Track Severe Weather on mobile